sensor_id;sensor_type;location;lat;lon;timestamp;P1;P2;P0
56688;PMS5003;42565;53.342;-1.534;2023-05-16T00:02:23;4;3;
56688;PMS5003;42565;53.342;-1.534;2023-05-16T00:04:51;2;2;
56688;PMS5003;42565;53.342;-1.534;2023-05-16T00:07:18;2;1;
56688;PMS5003;42565;53.342;-1.534;2023-05-16T00:09:44;1;1;
56688;PMS5003;42565;53.342;-1.534;2023-05-16T00:12:11;2;1;
56688;PMS5003;42565;53.342;-1.534;2023-05-16T00:14:39;2;1;
56688;PMS5003;42565;53.342;-1.534;2023-05-16T00:17:05;0;0;
56688;PMS5003;42565;53.342;-1.534;2023-05-16T00:19:32;1;1;
56688;PMS5003;42565;53.342;-1.534;2023-05-16T00:21:59;2;2;
56688;PMS5003;42565;53.342;-1.534;2023-05-16T00:24:26;2;1;
56688;PMS5003;42565;53.342;-1.534;2023-05-16T00:26:52;2;1;
56688;PMS5003;42565;53.342;-1.534;2023-05-16T00:29:19;2;0;
56688;PMS5003;42565;53.342;-1.534;2023-05-16T00:31:46;0;0;
56688;PMS5003;42565;53.342;-1.534;2023-05-16T00:34:13;2;2;
56688;PMS5003;42565;53.342;-1.534;2023-05-16T00:36:40;2;2;
56688;PMS5003;42565;53.342;-1.534;2023-05-16T00:39:07;2;2;
56688;PMS5003;42565;53.342;-1.534;2023-05-16T00:41:34;2;1;
56688;PMS5003;42565;53.342;-1.534;2023-05-16T00:44:01;1;1;
56688;PMS5003;42565;53.342;-1.534;2023-05-16T00:46:29;1;1;
56688;PMS5003;42565;53.342;-1.534;2023-05-16T00:48:55;4;2;
56688;PMS5003;42565;53.342;-1.534;2023-05-16T00:51:22;2;2;
56688;PMS5003;42565;53.342;-1.534;2023-05-16T00:53:49;4;2;
56688;PMS5003;42565;53.342;-1.534;2023-05-16T00:56:17;2;1;
56688;PMS5003;42565;53.342;-1.534;2023-05-16T00:58:45;3;2;
56688;PMS5003;42565;53.342;-1.534;2023-05-16T01:01:11;0;0;
56688;PMS5003;42565;53.342;-1.534;2023-05-16T01:03:39;3;2;
56688;PMS5003;42565;53.342;-1.534;2023-05-16T01:06:07;3;1;
56688;PMS5003;42565;53.342;-1.534;2023-05-16T01:08:35;2;2;
56688;PMS5003;42565;53.342;-1.534;2023-05-16T01:11:07;2;1;
56688;PMS5003;42565;53.342;-1.534;2023-05-16T01:13:50;3;2;
56688;PMS5003;42565;53.342;-1.534;2023-05-16T01:16:29;2;2;
56688;PMS5003;42565;53.342;-1.534;2023-05-16T01:19:03;1;1;
56688;PMS5003;42565;53.342;-1.534;2023-05-16T01:21:41;2;2;
56688;PMS5003;42565;53.342;-1.534;2023-05-16T01:24:19;2;2;
56688;PMS5003;42565;53.342;-1.534;2023-05-16T01:26:52;1;1;
56688;PMS5003;42565;53.342;-1.534;2023-05-16T01:29:21;1;1;
56688;PMS5003;42565;53.342;-1.534;2023-05-16T01:31:49;1;1;
56688;PMS5003;42565;53.342;-1.534;2023-05-16T01:34:16;1;1;
56688;PMS5003;42565;53.342;-1.534;2023-05-16T01:36:45;2;1;
56688;PMS5003;42565;53.342;-1.534;2023-05-16T01:39:19;1;1;
56688;PMS5003;42565;53.342;-1.534;2023-05-16T01:41:53;2;2;
56688;PMS5003;42565;53.342;-1.534;2023-05-16T01:44:28;3;2;
56688;PMS5003;42565;53.342;-1.534;2023-05-16T01:47:00;5;3;
56688;PMS5003;42565;53.342;-1.534;2023-05-16T01:49:30;2;2;
56688;PMS5003;42565;53.342;-1.534;2023-05-16T01:52:07;2;2;
56688;PMS5003;42565;53.342;-1.534;2023-05-16T01:54:37;2;2;
56688;PMS5003;42565;53.342;-1.534;2023-05-16T01:57:08;3;2;
56688;PMS5003;42565;53.342;-1.534;2023-05-16T01:59:38;1;1;
56688;PMS5003;42565;53.342;-1.534;2023-05-16T02:02:06;2;2;
56688;PMS5003;42565;53.342;-1.534;2023-05-16T02:04:34;3;1;
56688;PMS5003;42565;53.342;-1.534;2023-05-16T02:07:01;3;2;
56688;PMS5003;42565;53.342;-1.534;2023-05-16T02:09:28;1;1;
56688;PMS5003;42565;53.342;-1.534;2023-05-16T02:11:55;2;1;
56688;PMS5003;42565;53.342;-1.534;2023-05-16T02:14:22;2;2;
56688;PMS5003;42565;53.342;-1.534;2023-05-16T02:16:48;4;2;
56688;PMS5003;42565;53.342;-1.534;2023-05-16T02:19:15;1;1;
56688;PMS5003;42565;53.342;-1.534;2023-05-16T02:21:43;3;2;
56688;PMS5003;42565;53.342;-1.534;2023-05-16T02:24:09;1;0;
56688;PMS5003;42565;53.342;-1.534;2023-05-16T02:26:36;4;2;
56688;PMS5003;42565;53.342;-1.534;2023-05-16T02:29:03;3;3;
56688;PMS5003;42565;53.342;-1.534;2023-05-16T02:31:31;3;3;
56688;PMS5003;42565;53.342;-1.534;2023-05-16T02:33:59;3;2;
56688;PMS5003;42565;53.342;-1.534;2023-05-16T02:36:27;2;2;
56688;PMS5003;42565;53.342;-1.534;2023-05-16T02:38:54;4;3;
56688;PMS5003;42565;53.342;-1.534;2023-05-16T02:41:21;4;3;
56688;PMS5003;42565;53.342;-1.534;2023-05-16T02:43:48;3;2;
56688;PMS5003;42565;53.342;-1.534;2023-05-16T02:46:23;5;4;
56688;PMS5003;42565;53.342;-1.534;2023-05-16T02:48:52;3;2;
56688;PMS5003;42565;53.342;-1.534;2023-05-16T02:51:19;4;3;
56688;PMS5003;42565;53.342;-1.534;2023-05-16T02:53:47;2;2;
56688;PMS5003;42565;53.342;-1.534;2023-05-16T02:56:15;7;4;
56688;PMS5003;42565;53.342;-1.534;2023-05-16T02:58:45;5;2;
56688;PMS5003;42565;53.342;-1.534;2023-05-16T03:01:13;3;3;
56688;PMS5003;42565;53.342;-1.534;2023-05-16T03:03:41;4;3;
56688;PMS5003;42565;53.342;-1.534;2023-05-16T03:06:08;4;4;
56688;PMS5003;42565;53.342;-1.534;2023-05-16T03:08:35;3;3;
56688;PMS5003;42565;53.342;-1.534;2023-05-16T03:11:02;4;2;
56688;PMS5003;42565;53.342;-1.534;2023-05-16T03:13:30;5;4;
56688;PMS5003;42565;53.342;-1.534;2023-05-16T03:15:57;4;4;
56688;PMS5003;42565;53.342;-1.534;2023-05-16T03:18:24;4;4;
56688;PMS5003;42565;53.342;-1.534;2023-05-16T03:20:51;4;3;
56688;PMS5003;42565;53.342;-1.534;2023-05-16T03:23:18;5;4;
56688;PMS5003;42565;53.342;-1.534;2023-05-16T03:25:45;5;3;
56688;PMS5003;42565;53.342;-1.534;2023-05-16T03:28:18;4;4;
56688;PMS5003;42565;53.342;-1.534;2023-05-16T03:30:45;4;3;
56688;PMS5003;42565;53.342;-1.534;2023-05-16T03:33:12;5;4;
56688;PMS5003;42565;53.342;-1.534;2023-05-16T03:35:39;5;5;
56688;PMS5003;42565;53.342;-1.534;2023-05-16T03:38:07;3;3;
56688;PMS5003;42565;53.342;-1.534;2023-05-16T03:40:34;7;4;
56688;PMS5003;42565;53.342;-1.534;2023-05-16T03:43:02;3;3;
56688;PMS5003;42565;53.342;-1.534;2023-05-16T03:45:29;4;4;
56688;PMS5003;42565;53.342;-1.534;2023-05-16T03:47:56;4;3;
56688;PMS5003;42565;53.342;-1.534;2023-05-16T03:50:24;4;4;
56688;PMS5003;42565;53.342;-1.534;2023-05-16T03:52:52;4;3;
56688;PMS5003;42565;53.342;-1.534;2023-05-16T03:55:18;4;4;
56688;PMS5003;42565;53.342;-1.534;2023-05-16T03:57:45;6;4;
56688;PMS5003;42565;53.342;-1.534;2023-05-16T04:00:12;4;4;
56688;PMS5003;42565;53.342;-1.534;2023-05-16T04:02:40;4;4;
56688;PMS5003;42565;53.342;-1.534;2023-05-16T04:05:07;4;4;
56688;PMS5003;42565;53.342;-1.534;2023-05-16T04:07:35;4;4;
56688;PMS5003;42565;53.342;-1.534;2023-05-16T04:10:03;5;4;
56688;PMS5003;42565;53.342;-1.534;2023-05-16T04:12:31;5;5;
56688;PMS5003;42565;53.342;-1.534;2023-05-16T04:14:58;5;4;
56688;PMS5003;42565;53.342;-1.534;2023-05-16T04:17:25;4;4;
56688;PMS5003;42565;53.342;-1.534;2023-05-16T04:19:52;4;2;
56688;PMS5003;42565;53.342;-1.534;2023-05-16T04:22:19;5;4;
56688;PMS5003;42565;53.342;-1.534;2023-05-16T04:24:47;4;3;
56688;PMS5003;42565;53.342;-1.534;2023-05-16T04:27:14;3;3;
56688;PMS5003;42565;53.342;-1.534;2023-05-16T04:29:41;4;2;
56688;PMS5003;42565;53.342;-1.534;2023-05-16T04:32:09;3;3;
56688;PMS5003;42565;53.342;-1.534;2023-05-16T04:34:36;3;3;
56688;PMS5003;42565;53.342;-1.534;2023-05-16T04:37:02;4;4;
56688;PMS5003;42565;53.342;-1.534;2023-05-16T04:39:30;2;2;
56688;PMS5003;42565;53.342;-1.534;2023-05-16T04:41:57;3;3;
56688;PMS5003;42565;53.342;-1.534;2023-05-16T04:44:23;5;3;
56688;PMS5003;42565;53.342;-1.534;2023-05-16T04:46:50;2;2;
56688;PMS5003;42565;53.342;-1.534;2023-05-16T04:49:17;3;3;
56688;PMS5003;42565;53.342;-1.534;2023-05-16T04:51:44;2;2;
56688;PMS5003;42565;53.342;-1.534;2023-05-16T04:54:12;2;2;
56688;PMS5003;42565;53.342;-1.534;2023-05-16T04:56:40;3;3;
56688;PMS5003;42565;53.342;-1.534;2023-05-16T04:59:07;1;1;
56688;PMS5003;42565;53.342;-1.534;2023-05-16T05:01:34;4;3;
56688;PMS5003;42565;53.342;-1.534;2023-05-16T05:04:01;2;2;
56688;PMS5003;42565;53.342;-1.534;2023-05-16T05:06:28;4;3;
56688;PMS5003;42565;53.342;-1.534;2023-05-16T05:08:54;3;3;
56688;PMS5003;42565;53.342;-1.534;2023-05-16T05:11:21;2;1;
56688;PMS5003;42565;53.342;-1.534;2023-05-16T05:13:48;2;2;
56688;PMS5003;42565;53.342;-1.534;2023-05-16T05:16:15;4;3;
56688;PMS5003;42565;53.342;-1.534;2023-05-16T05:18:42;2;2;
56688;PMS5003;42565;53.342;-1.534;2023-05-16T05:21:09;2;2;
56688;PMS5003;42565;53.342;-1.534;2023-05-16T05:23:36;2;2;
56688;PMS5003;42565;53.342;-1.534;2023-05-16T05:26:02;2;2;
56688;PMS5003;42565;53.342;-1.534;2023-05-16T05:28:30;1;0;
56688;PMS5003;42565;53.342;-1.534;2023-05-16T05:30:57;3;2;
56688;PMS5003;42565;53.342;-1.534;2023-05-16T05:33:25;2;2;
56688;PMS5003;42565;53.342;-1.534;2023-05-16T05:35:53;2;2;
56688;PMS5003;42565;53.342;-1.534;2023-05-16T05:38:19;3;2;
56688;PMS5003;42565;53.342;-1.534;2023-05-16T05:40:46;1;1;
56688;PMS5003;42565;53.342;-1.534;2023-05-16T05:43:13;3;3;
56688;PMS5003;42565;53.342;-1.534;2023-05-16T05:45:41;2;2;
56688;PMS5003;42565;53.342;-1.534;2023-05-16T05:48:08;2;1;
56688;PMS5003;42565;53.342;-1.534;2023-05-16T05:50:36;1;0;
56688;PMS5003;42565;53.342;-1.534;2023-05-16T05:53:03;1;1;
56688;PMS5003;42565;53.342;-1.534;2023-05-16T05:55:30;2;1;
56688;PMS5003;42565;53.342;-1.534;2023-05-16T05:57:57;2;1;
56688;PMS5003;42565;53.342;-1.534;2023-05-16T06:00:24;2;2;
56688;PMS5003;42565;53.342;-1.534;2023-05-16T06:02:50;3;3;
56688;PMS5003;42565;53.342;-1.534;2023-05-16T06:05:17;3;2;
56688;PMS5003;42565;53.342;-1.534;2023-05-16T06:07:44;3;2;
56688;PMS5003;42565;53.342;-1.534;2023-05-16T06:10:11;1;1;
56688;PMS5003;42565;53.342;-1.534;2023-05-16T06:12:38;1;1;
56688;PMS5003;42565;53.342;-1.534;2023-05-16T06:15:05;1;0;
56688;PMS5003;42565;53.342;-1.534;2023-05-16T06:17:33;2;2;
56688;PMS5003;42565;53.342;-1.534;2023-05-16T06:20:00;1;1;
56688;PMS5003;42565;53.342;-1.534;2023-05-16T06:22:27;2;1;
56688;PMS5003;42565;53.342;-1.534;2023-05-16T06:24:53;2;2;
56688;PMS5003;42565;53.342;-1.534;2023-05-16T06:27:20;1;1;
56688;PMS5003;42565;53.342;-1.534;2023-05-16T06:29:47;1;1;
56688;PMS5003;42565;53.342;-1.534;2023-05-16T06:32:13;2;1;
56688;PMS5003;42565;53.342;-1.534;2023-05-16T06:34:41;2;1;
56688;PMS5003;42565;53.342;-1.534;2023-05-16T06:37:08;2;1;
56688;PMS5003;42565;53.342;-1.534;2023-05-16T06:39:34;2;1;
56688;PMS5003;42565;53.342;-1.534;2023-05-16T06:42:02;1;1;
56688;PMS5003;42565;53.342;-1.534;2023-05-16T06:44:29;2;1;
56688;PMS5003;42565;53.342;-1.534;2023-05-16T06:46:56;4;1;
56688;PMS5003;42565;53.342;-1.534;2023-05-16T06:49:23;2;1;
56688;PMS5003;42565;53.342;-1.534;2023-05-16T06:51:50;2;1;
56688;PMS5003;42565;53.342;-1.534;2023-05-16T06:54:16;1;1;
56688;PMS5003;42565;53.342;-1.534;2023-05-16T06:56:44;2;2;
56688;PMS5003;42565;53.342;-1.534;2023-05-16T06:59:10;0;0;
56688;PMS5003;42565;53.342;-1.534;2023-05-16T07:01:37;0;0;
56688;PMS5003;42565;53.342;-1.534;2023-05-16T07:04:05;1;1;
56688;PMS5003;42565;53.342;-1.534;2023-05-16T07:06:32;1;1;
56688;PMS5003;42565;53.342;-1.534;2023-05-16T07:08:59;3;2;
56688;PMS5003;42565;53.342;-1.534;2023-05-16T07:11:27;2;1;
56688;PMS5003;42565;53.342;-1.534;2023-05-16T07:13:53;2;2;
56688;PMS5003;42565;53.342;-1.534;2023-05-16T07:16:20;2;1;
56688;PMS5003;42565;53.342;-1.534;2023-05-16T07:18:47;0;0;
56688;PMS5003;42565;53.342;-1.534;2023-05-16T07:21:14;2;2;
56688;PMS5003;42565;53.342;-1.534;2023-05-16T07:23:41;2;2;
56688;PMS5003;42565;53.342;-1.534;2023-05-16T07:26:08;1;1;
56688;PMS5003;42565;53.342;-1.534;2023-05-16T07:28:35;1;1;
56688;PMS5003;42565;53.342;-1.534;2023-05-16T07:31:02;3;2;
56688;PMS5003;42565;53.342;-1.534;2023-05-16T07:33:29;2;1;
56688;PMS5003;42565;53.342;-1.534;2023-05-16T07:35:55;1;1;
56688;PMS5003;42565;53.342;-1.534;2023-05-16T07:38:22;3;2;
56688;PMS5003;42565;53.342;-1.534;2023-05-16T07:40:49;4;4;
56688;PMS5003;42565;53.342;-1.534;2023-05-16T07:43:16;4;3;
56688;PMS5003;42565;53.342;-1.534;2023-05-16T07:45:43;3;3;
56688;PMS5003;42565;53.342;-1.534;2023-05-16T07:48:10;3;3;
56688;PMS5003;42565;53.342;-1.534;2023-05-16T07:50:37;1;1;
56688;PMS5003;42565;53.342;-1.534;2023-05-16T07:53:04;3;2;
56688;PMS5003;42565;53.342;-1.534;2023-05-16T07:55:31;3;3;
56688;PMS5003;42565;53.342;-1.534;2023-05-16T07:57:58;3;3;
56688;PMS5003;42565;53.342;-1.534;2023-05-16T08:00:26;3;3;
56688;PMS5003;42565;53.342;-1.534;2023-05-16T08:02:53;4;3;
56688;PMS5003;42565;53.342;-1.534;2023-05-16T08:05:20;4;3;
56688;PMS5003;42565;53.342;-1.534;2023-05-16T08:07:47;4;4;
56688;PMS5003;42565;53.342;-1.534;2023-05-16T08:10:14;6;5;
56688;PMS5003;42565;53.342;-1.534;2023-05-16T08:12:41;4;3;
56688;PMS5003;42565;53.342;-1.534;2023-05-16T08:15:08;6;5;
56688;PMS5003;42565;53.342;-1.534;2023-05-16T08:17:35;5;4;
56688;PMS5003;42565;53.342;-1.534;2023-05-16T08:20:02;5;4;
56688;PMS5003;42565;53.342;-1.534;2023-05-16T08:22:30;3;3;
56688;PMS5003;42565;53.342;-1.534;2023-05-16T08:24:58;4;4;
56688;PMS5003;42565;53.342;-1.534;2023-05-16T08:27:25;6;6;
56688;PMS5003;42565;53.342;-1.534;2023-05-16T08:29:52;4;4;
56688;PMS5003;42565;53.342;-1.534;2023-05-16T08:32:19;7;6;
56688;PMS5003;42565;53.342;-1.534;2023-05-16T08:34:47;5;4;
56688;PMS5003;42565;53.342;-1.534;2023-05-16T08:37:14;6;5;
56688;PMS5003;42565;53.342;-1.534;2023-05-16T08:39:41;5;5;
56688;PMS5003;42565;53.342;-1.534;2023-05-16T08:42:07;7;6;
56688;PMS5003;42565;53.342;-1.534;2023-05-16T08:44:34;4;3;
56688;PMS5003;42565;53.342;-1.534;2023-05-16T08:47:04;4;4;
56688;PMS5003;42565;53.342;-1.534;2023-05-16T08:49:45;4;4;
56688;PMS5003;42565;53.342;-1.534;2023-05-16T08:52:13;5;5;
56688;PMS5003;42565;53.342;-1.534;2023-05-16T08:54:44;6;5;
56688;PMS5003;42565;53.342;-1.534;2023-05-16T08:57:12;5;5;
56688;PMS5003;42565;53.342;-1.534;2023-05-16T08:59:41;7;6;
56688;PMS5003;42565;53.342;-1.534;2023-05-16T09:02:09;7;5;
56688;PMS5003;42565;53.342;-1.534;2023-05-16T09:04:37;5;5;
56688;PMS5003;42565;53.342;-1.534;2023-05-16T09:07:07;5;5;
56688;PMS5003;42565;53.342;-1.534;2023-05-16T09:09:33;6;6;
56688;PMS5003;42565;53.342;-1.534;2023-05-16T09:12:00;8;7;
56688;PMS5003;42565;53.342;-1.534;2023-05-16T09:14:27;6;5;
56688;PMS5003;42565;53.342;-1.534;2023-05-16T09:17:02;6;5;
56688;PMS5003;42565;53.342;-1.534;2023-05-16T09:19:35;6;6;
56688;PMS5003;42565;53.342;-1.534;2023-05-16T09:22:03;6;6;
56688;PMS5003;42565;53.342;-1.534;2023-05-16T09:24:32;7;7;
56688;PMS5003;42565;53.342;-1.534;2023-05-16T09:27:06;9;7;
56688;PMS5003;42565;53.342;-1.534;2023-05-16T09:29:33;8;7;
56688;PMS5003;42565;53.342;-1.534;2023-05-16T09:32:03;7;7;
56688;PMS5003;42565;53.342;-1.534;2023-05-16T09:34:36;6;5;
56688;PMS5003;42565;53.342;-1.534;2023-05-16T09:37:04;9;8;
56688;PMS5003;42565;53.342;-1.534;2023-05-16T09:39:31;8;7;
56688;PMS5003;42565;53.342;-1.534;2023-05-16T09:41:59;6;6;
56688;PMS5003;42565;53.342;-1.534;2023-05-16T09:44:26;5;5;
56688;PMS5003;42565;53.342;-1.534;2023-05-16T09:46:53;5;5;
56688;PMS5003;42565;53.342;-1.534;2023-05-16T09:49:21;8;7;
56688;PMS5003;42565;53.342;-1.534;2023-05-16T09:51:48;7;7;
56688;PMS5003;42565;53.342;-1.534;2023-05-16T09:54:15;10;8;
56688;PMS5003;42565;53.342;-1.534;2023-05-16T09:56:54;8;8;
56688;PMS5003;42565;53.342;-1.534;2023-05-16T09:59:22;8;7;
56688;PMS5003;42565;53.342;-1.534;2023-05-16T10:01:49;5;5;
56688;PMS5003;42565;53.342;-1.534;2023-05-16T10:04:18;10;9;
56688;PMS5003;42565;53.342;-1.534;2023-05-16T10:06:45;6;6;
56688;PMS5003;42565;53.342;-1.534;2023-05-16T10:09:15;10;10;
56688;PMS5003;42565;53.342;-1.534;2023-05-16T10:11:44;5;5;
56688;PMS5003;42565;53.342;-1.534;2023-05-16T10:14:15;7;6;
56688;PMS5003;42565;53.342;-1.534;2023-05-16T10:16:45;8;8;
56688;PMS5003;42565;53.342;-1.534;2023-05-16T10:19:14;8;8;
56688;PMS5003;42565;53.342;-1.534;2023-05-16T10:21:47;8;7;
56688;PMS5003;42565;53.342;-1.534;2023-05-16T10:24:20;6;5;
56688;PMS5003;42565;53.342;-1.534;2023-05-16T10:26:51;8;7;
56688;PMS5003;42565;53.342;-1.534;2023-05-16T10:29:18;8;8;
56688;PMS5003;42565;53.342;-1.534;2023-05-16T10:31:45;8;8;
56688;PMS5003;42565;53.342;-1.534;2023-05-16T10:34:14;11;10;
56688;PMS5003;42565;53.342;-1.534;2023-05-16T10:36:42;8;7;
56688;PMS5003;42565;53.342;-1.534;2023-05-16T10:39:11;9;7;
56688;PMS5003;42565;53.342;-1.534;2023-05-16T10:41:39;9;8;
56688;PMS5003;42565;53.342;-1.534;2023-05-16T10:44:11;10;10;
56688;PMS5003;42565;53.342;-1.534;2023-05-16T10:46:39;8;8;
56688;PMS5003;42565;53.342;-1.534;2023-05-16T10:49:18;10;9;
56688;PMS5003;42565;53.342;-1.534;2023-05-16T10:51:46;8;7;
56688;PMS5003;42565;53.342;-1.534;2023-05-16T10:54:33;9;9;
56688;PMS5003;42565;53.342;-1.534;2023-05-16T10:57:03;9;8;
56688;PMS5003;42565;53.342;-1.534;2023-05-16T10:59:38;13;10;
56688;PMS5003;42565;53.342;-1.534;2023-05-16T11:02:20;11;11;
56688;PMS5003;42565;53.342;-1.534;2023-05-16T11:04:49;9;8;
56688;PMS5003;42565;53.342;-1.534;2023-05-16T11:07:17;10;8;
56688;PMS5003;42565;53.342;-1.534;2023-05-16T11:09:52;7;7;
56688;PMS5003;42565;53.342;-1.534;2023-05-16T11:12:35;7;7;
56688;PMS5003;42565;53.342;-1.534;2023-05-16T11:15:16;6;6;
56688;PMS5003;42565;53.342;-1.534;2023-05-16T11:17:45;7;7;
56688;PMS5003;42565;53.342;-1.534;2023-05-16T11:20:24;8;8;
56688;PMS5003;42565;53.342;-1.534;2023-05-16T11:22:58;7;6;
56688;PMS5003;42565;53.342;-1.534;2023-05-16T11:25:44;8;7;
56688;PMS5003;42565;53.342;-1.534;2023-05-16T11:28:12;8;7;
56688;PMS5003;42565;53.342;-1.534;2023-05-16T11:30:41;9;8;
56688;PMS5003;42565;53.342;-1.534;2023-05-16T11:33:09;9;5;
56688;PMS5003;42565;53.342;-1.534;2023-05-16T11:35:36;10;8;
56688;PMS5003;42565;53.342;-1.534;2023-05-16T11:38:03;9;7;
56688;PMS5003;42565;53.342;-1.534;2023-05-16T11:40:30;8;6;
56688;PMS5003;42565;53.342;-1.534;2023-05-16T11:42:59;9;9;
56688;PMS5003;42565;53.342;-1.534;2023-05-16T11:45:26;10;8;
56688;PMS5003;42565;53.342;-1.534;2023-05-16T11:47:54;7;6;
56688;PMS5003;42565;53.342;-1.534;2023-05-16T11:50:28;10;8;
56688;PMS5003;42565;53.342;-1.534;2023-05-16T11:52:56;7;6;
56688;PMS5003;42565;53.342;-1.534;2023-05-16T11:55:24;8;7;
56688;PMS5003;42565;53.342;-1.534;2023-05-16T11:57:53;9;7;
56688;PMS5003;42565;53.342;-1.534;2023-05-16T12:00:21;11;8;
56688;PMS5003;42565;53.342;-1.534;2023-05-16T12:02:49;9;7;
56688;PMS5003;42565;53.342;-1.534;2023-05-16T12:05:16;7;7;
56688;PMS5003;42565;53.342;-1.534;2023-05-16T12:07:45;7;5;
56688;PMS5003;42565;53.342;-1.534;2023-05-16T12:10:14;7;5;
56688;PMS5003;42565;53.342;-1.534;2023-05-16T12:12:41;6;5;
56688;PMS5003;42565;53.342;-1.534;2023-05-16T12:15:10;7;6;
56688;PMS5003;42565;53.342;-1.534;2023-05-16T12:17:39;8;8;
56688;PMS5003;42565;53.342;-1.534;2023-05-16T12:20:07;8;7;
56688;PMS5003;42565;53.342;-1.534;2023-05-16T12:22:38;7;6;
56688;PMS5003;42565;53.342;-1.534;2023-05-16T12:25:21;5;4;
56688;PMS5003;42565;53.342;-1.534;2023-05-16T12:27:51;5;4;
56688;PMS5003;42565;53.342;-1.534;2023-05-16T12:30:20;6;6;
56688;PMS5003;42565;53.342;-1.534;2023-05-16T12:32:51;6;6;
56688;PMS5003;42565;53.342;-1.534;2023-05-16T12:35:21;8;8;
56688;PMS5003;42565;53.342;-1.534;2023-05-16T12:37:48;6;6;
56688;PMS5003;42565;53.342;-1.534;2023-05-16T12:40:16;8;4;
56688;PMS5003;42565;53.342;-1.534;2023-05-16T12:42:43;6;6;
56688;PMS5003;42565;53.342;-1.534;2023-05-16T12:45:14;7;7;
56688;PMS5003;42565;53.342;-1.534;2023-05-16T12:47:42;9;7;
56688;PMS5003;42565;53.342;-1.534;2023-05-16T12:50:10;7;7;
56688;PMS5003;42565;53.342;-1.534;2023-05-16T12:52:45;8;6;
56688;PMS5003;42565;53.342;-1.534;2023-05-16T12:55:13;7;6;
56688;PMS5003;42565;53.342;-1.534;2023-05-16T12:57:41;6;6;
56688;PMS5003;42565;53.342;-1.534;2023-05-16T13:00:09;8;7;
56688;PMS5003;42565;53.342;-1.534;2023-05-16T13:02:38;7;7;
56688;PMS5003;42565;53.342;-1.534;2023-05-16T13:05:05;5;4;
56688;PMS5003;42565;53.342;-1.534;2023-05-16T13:07:33;6;5;
56688;PMS5003;42565;53.342;-1.534;2023-05-16T13:10:01;7;7;
56688;PMS5003;42565;53.342;-1.534;2023-05-16T13:12:29;8;8;
56688;PMS5003;42565;53.342;-1.534;2023-05-16T13:14:55;7;6;
56688;PMS5003;42565;53.342;-1.534;2023-05-16T13:17:22;9;8;
56688;PMS5003;42565;53.342;-1.534;2023-05-16T13:19:49;7;6;
56688;PMS5003;42565;53.342;-1.534;2023-05-16T13:22:15;5;5;
56688;PMS5003;42565;53.342;-1.534;2023-05-16T13:24:43;7;6;
56688;PMS5003;42565;53.342;-1.534;2023-05-16T13:27:09;8;7;
56688;PMS5003;42565;53.342;-1.534;2023-05-16T13:29:36;8;7;
56688;PMS5003;42565;53.342;-1.534;2023-05-16T13:32:03;6;6;
56688;PMS5003;42565;53.342;-1.534;2023-05-16T13:34:30;6;6;
56688;PMS5003;42565;53.342;-1.534;2023-05-16T13:36:58;7;6;
56688;PMS5003;42565;53.342;-1.534;2023-05-16T13:39:25;8;6;
56688;PMS5003;42565;53.342;-1.534;2023-05-16T13:41:53;6;6;
56688;PMS5003;42565;53.342;-1.534;2023-05-16T13:44:20;7;5;
56688;PMS5003;42565;53.342;-1.534;2023-05-16T13:46:48;7;6;
56688;PMS5003;42565;53.342;-1.534;2023-05-16T13:49:15;8;6;
56688;PMS5003;42565;53.342;-1.534;2023-05-16T13:51:42;6;5;
56688;PMS5003;42565;53.342;-1.534;2023-05-16T13:54:09;5;4;
56688;PMS5003;42565;53.342;-1.534;2023-05-16T13:56:36;7;6;
56688;PMS5003;42565;53.342;-1.534;2023-05-16T13:59:04;6;5;
56688;PMS5003;42565;53.342;-1.534;2023-05-16T14:01:31;7;6;
56688;PMS5003;42565;53.342;-1.534;2023-05-16T14:03:58;9;7;
56688;PMS5003;42565;53.342;-1.534;2023-05-16T14:06:25;8;6;
56688;PMS5003;42565;53.342;-1.534;2023-05-16T14:08:51;7;7;
56688;PMS5003;42565;53.342;-1.534;2023-05-16T14:11:19;5;5;
56688;PMS5003;42565;53.342;-1.534;2023-05-16T14:13:46;5;4;
56688;PMS5003;42565;53.342;-1.534;2023-05-16T14:16:14;8;6;
56688;PMS5003;42565;53.342;-1.534;2023-05-16T14:18:41;13;11;
56688;PMS5003;42565;53.342;-1.534;2023-05-16T14:21:08;8;8;
56688;PMS5003;42565;53.342;-1.534;2023-05-16T14:23:35;9;8;
56688;PMS5003;42565;53.342;-1.534;2023-05-16T14:26:02;9;7;
56688;PMS5003;42565;53.342;-1.534;2023-05-16T14:28:29;18;10;
56688;PMS5003;42565;53.342;-1.534;2023-05-16T14:30:56;9;6;
56688;PMS5003;42565;53.342;-1.534;2023-05-16T14:33:24;6;6;
56688;PMS5003;42565;53.342;-1.534;2023-05-16T14:35:51;5;5;
56688;PMS5003;42565;53.342;-1.534;2023-05-16T14:38:18;4;4;
56688;PMS5003;42565;53.342;-1.534;2023-05-16T14:40:46;8;6;
56688;PMS5003;42565;53.342;-1.534;2023-05-16T14:43:13;7;5;
56688;PMS5003;42565;53.342;-1.534;2023-05-16T14:45:41;5;5;
56688;PMS5003;42565;53.342;-1.534;2023-05-16T14:48:07;6;5;
56688;PMS5003;42565;53.342;-1.534;2023-05-16T14:50:34;6;6;
56688;PMS5003;42565;53.342;-1.534;2023-05-16T14:53:01;7;7;
56688;PMS5003;42565;53.342;-1.534;2023-05-16T14:55:28;5;5;
56688;PMS5003;42565;53.342;-1.534;2023-05-16T14:57:55;9;7;
56688;PMS5003;42565;53.342;-1.534;2023-05-16T15:00:22;7;6;
56688;PMS5003;42565;53.342;-1.534;2023-05-16T15:02:49;9;8;
56688;PMS5003;42565;53.342;-1.534;2023-05-16T15:05:16;9;8;
56688;PMS5003;42565;53.342;-1.534;2023-05-16T15:07:43;6;6;
56688;PMS5003;42565;53.342;-1.534;2023-05-16T15:10:11;7;6;
56688;PMS5003;42565;53.342;-1.534;2023-05-16T15:12:38;9;8;
56688;PMS5003;42565;53.342;-1.534;2023-05-16T15:15:06;7;7;
56688;PMS5003;42565;53.342;-1.534;2023-05-16T15:17:34;6;6;
56688;PMS5003;42565;53.342;-1.534;2023-05-16T15:20:00;5;5;
56688;PMS5003;42565;53.342;-1.534;2023-05-16T15:22:27;9;7;
56688;PMS5003;42565;53.342;-1.534;2023-05-16T15:24:54;6;5;
56688;PMS5003;42565;53.342;-1.534;2023-05-16T15:27:21;7;6;
56688;PMS5003;42565;53.342;-1.534;2023-05-16T15:29:48;8;7;
56688;PMS5003;42565;53.342;-1.534;2023-05-16T15:32:15;8;7;
56688;PMS5003;42565;53.342;-1.534;2023-05-16T15:34:42;8;8;
56688;PMS5003;42565;53.342;-1.534;2023-05-16T15:37:09;8;8;
56688;PMS5003;42565;53.342;-1.534;2023-05-16T15:39:36;9;7;
56688;PMS5003;42565;53.342;-1.534;2023-05-16T15:42:04;9;7;
56688;PMS5003;42565;53.342;-1.534;2023-05-16T15:44:32;10;7;
56688;PMS5003;42565;53.342;-1.534;2023-05-16T15:47:00;5;5;
56688;PMS5003;42565;53.342;-1.534;2023-05-16T15:49:27;8;7;
56688;PMS5003;42565;53.342;-1.534;2023-05-16T15:51:55;9;7;
56688;PMS5003;42565;53.342;-1.534;2023-05-16T15:54:22;8;6;
56688;PMS5003;42565;53.342;-1.534;2023-05-16T15:56:50;7;7;
56688;PMS5003;42565;53.342;-1.534;2023-05-16T15:59:17;9;8;
56688;PMS5003;42565;53.342;-1.534;2023-05-16T16:01:44;8;7;
56688;PMS5003;42565;53.342;-1.534;2023-05-16T16:04:12;9;8;
56688;PMS5003;42565;53.342;-1.534;2023-05-16T16:06:39;7;6;
56688;PMS5003;42565;53.342;-1.534;2023-05-16T16:09:06;8;6;
56688;PMS5003;42565;53.342;-1.534;2023-05-16T16:11:32;6;6;
56688;PMS5003;42565;53.342;-1.534;2023-05-16T16:14:00;7;7;
56688;PMS5003;42565;53.342;-1.534;2023-05-16T16:16:27;10;7;
56688;PMS5003;42565;53.342;-1.534;2023-05-16T16:18:55;8;5;
56688;PMS5003;42565;53.342;-1.534;2023-05-16T16:21:22;6;6;
56688;PMS5003;42565;53.342;-1.534;2023-05-16T16:23:49;9;7;
56688;PMS5003;42565;53.342;-1.534;2023-05-16T16:26:16;6;6;
56688;PMS5003;42565;53.342;-1.534;2023-05-16T16:28:43;7;7;
56688;PMS5003;42565;53.342;-1.534;2023-05-16T16:31:10;9;9;
56688;PMS5003;42565;53.342;-1.534;2023-05-16T16:33:37;7;6;
56688;PMS5003;42565;53.342;-1.534;2023-05-16T16:36:04;7;6;
56688;PMS5003;42565;53.342;-1.534;2023-05-16T16:38:31;8;7;
56688;PMS5003;42565;53.342;-1.534;2023-05-16T16:40:57;7;5;